Time;durP1;ratioP1;P1;durP2;ratioP2;P2;SDS_P1;SDS_P2;PMS_P1;PMS_P2;Temp;Humidity;BMP_temperature;BMP_pressure;BME280_temperature;BME280_humidity;BME280_pressure;Samples;Min_cycle;Max_cycle;Signal;HPM_P1;HPM_P2
2021/01/25 00:02:41;;;;;;;;;;;;;;;4.27;52.59;99225.25;5012701;28;19913;-82
2021/01/25 00:05:26;;;;;;;;;;;;;;;4.30;52.70;99237.31;5016973;28;19913;-82
2021/01/25 00:08:10;;;;;;;;;;;;;;;4.23;53.75;99232.34;5021304;28;19914;-82
2021/01/25 00:10:54;;;;;;;;;;;;;;;4.42;53.52;99231.34;5008443;28;19917;-82
2021/01/25 00:13:39;;;;;;;;;;;;;;;4.52;52.60;99220.31;5006010;28;20307;-82
2021/01/25 00:16:23;;;;;;;;;;;;;;;4.55;52.52;99222.38;5022731;28;20390;-81
2021/01/25 00:19:07;;;;;;;;;;;;;;;4.54;51.89;99216.19;5023309;28;19913;-82
2021/01/25 00:21:53;;;;;;;;;;;;;;;4.49;52.34;99210.16;5010483;28;19913;-78
2021/01/25 00:24:38;;;;;;;;;;;;;;;4.26;52.25;99212.13;5005225;28;19913;-82
2021/01/25 00:27:22;;;;;;;;;;;;;;;4.12;52.27;99209.53;5015998;28;20371;-82
2021/01/25 00:30:09;;;;;;;;;;;;;;;4.15;52.93;99214.28;5027912;28;19913;-81
2021/01/25 00:32:54;;;;;;;;;;;;;;;4.19;52.59;99217.16;5019217;28;19917;-81
2021/01/25 00:35:38;;;;;;;;;;;;;;;4.08;52.29;99213.94;5006674;28;19921;-82
2021/01/25 00:38:22;;;;;;;;;;;;;;;4.19;51.48;99209.88;5028826;28;20379;-82
2021/01/25 00:41:07;;;;;;;;;;;;;;;4.26;50.99;99206.75;5006435;28;20496;-82
2021/01/25 00:43:51;;;;;;;;;;;;;;;4.29;51.27;99198.84;5028802;28;19917;-82
2021/01/25 00:46:35;;;;;;;;;;;;;;;4.31;50.71;99195.84;5010487;28;19913;-82
2021/01/25 00:49:20;;;;;;;;;;;;;;;4.40;50.33;99185.91;5010672;28;19912;-82
2021/01/25 00:52:04;;;;;;;;;;;;;;;4.43;50.05;99176.41;5023134;28;19913;-82
2021/01/25 00:54:51;;;;;;;;;;;;;;;4.46;50.09;99178.50;5026211;28;19918;-82
2021/01/25 00:57:36;;;;;;;;;;;;;;;4.35;49.55;99171.78;5011932;28;19917;-82
2021/01/25 01:00:20;;;;;;;;;;;;;;;4.49;49.32;99169.78;5009035;28;20391;-82
2021/01/25 01:03:05;;;;;;;;;;;;;;;4.81;47.97;99174.75;5018140;28;19921;-82
2021/01/25 01:05:49;;;;;;;;;;;;;;;4.44;48.98;99178.00;5002548;28;19913;-81
2021/01/25 01:08:34;;;;;;;;;;;;;;;4.21;50.80;99172.72;4999461;28;19913;-82
2021/01/25 01:11:18;;;;;;;;;;;;;;;4.00;52.08;99177.03;5005183;28;20367;-82
2021/01/25 01:14:03;;;;;;;;;;;;;;;4.07;52.27;99168.50;5002850;28;19918;-82
2021/01/25 01:16:48;;;;;;;;;;;;;;;3.87;52.88;99192.16;5001062;28;20379;-82
2021/01/25 01:19:34;;;;;;;;;;;;;;;3.68;53.00;99186.19;5000948;28;19913;-82
2021/01/25 01:22:18;;;;;;;;;;;;;;;3.78;53.20;99177.06;4999823;28;19913;-82
2021/01/25 01:25:04;;;;;;;;;;;;;;;3.56;53.99;99191.31;5013628;28;19913;-82
2021/01/25 01:27:49;;;;;;;;;;;;;;;3.68;53.30;99199.63;5008505;28;19913;-82
2021/01/25 01:30:34;;;;;;;;;;;;;;;3.53;53.73;99196.53;5010640;28;19913;-82
2021/01/25 01:33:18;;;;;;;;;;;;;;;3.71;54.31;99188.25;5012142;28;19917;-80
2021/01/25 01:36:03;;;;;;;;;;;;;;;3.76;53.73;99185.44;4990618;28;19913;-80
2021/01/25 01:38:47;;;;;;;;;;;;;;;3.76;53.34;99179.25;4987659;28;19914;-81
2021/01/25 01:41:36;;;;;;;;;;;;;;;3.57;54.75;99179.47;5013194;28;19913;-80
2021/01/25 01:44:20;;;;;;;;;;;;;;;3.52;54.19;99178.81;5014294;28;19917;-80
2021/01/25 01:47:05;;;;;;;;;;;;;;;3.60;54.53;99175.41;5002565;28;19913;-80
2021/01/25 01:49:50;;;;;;;;;;;;;;;3.38;54.82;99170.81;4997564;28;19913;-81
2021/01/25 01:52:34;;;;;;;;;;;;;;;3.65;54.31;99159.94;4999444;28;20282;-81
2021/01/25 01:55:19;;;;;;;;;;;;;;;3.77;53.19;99170.09;5011072;28;19918;-79
2021/01/25 01:58:04;;;;;;;;;;;;;;;3.56;53.36;99158.28;5002082;28;19913;-80
2021/01/25 02:00:49;;;;;;;;;;;;;;;3.41;53.06;99148.72;5010241;28;20306;-80
2021/01/25 02:03:33;;;;;;;;;;;;;;;3.59;53.32;99152.31;4998547;28;19913;-81
2021/01/25 02:06:20;;;;;;;;;;;;;;;3.66;53.62;99147.28;4997823;28;19913;-82
2021/01/25 02:09:05;;;;;;;;;;;;;;;3.52;53.40;99135.81;4998394;28;19914;-82
2021/01/25 02:11:49;;;;;;;;;;;;;;;3.54;52.72;99149.75;5001754;28;20299;-81
2021/01/25 02:14:34;;;;;;;;;;;;;;;3.42;52.94;99147.59;4997826;28;19917;-82
2021/01/25 02:17:19;;;;;;;;;;;;;;;3.50;52.56;99135.34;5011069;28;19914;-82
2021/01/25 02:20:03;;;;;;;;;;;;;;;3.38;52.88;99136.69;5003095;28;19913;-82
2021/01/25 02:23:06;;;;;;;;;;;;;;;3.34;53.78;99141.09;5013162;28;19913;-81
2021/01/25 02:25:51;;;;;;;;;;;;;;;3.31;53.11;99143.56;4998467;28;19914;-83
2021/01/25 02:28:39;;;;;;;;;;;;;;;3.30;52.82;99131.28;4994867;28;19917;-83
2021/01/25 02:31:23;;;;;;;;;;;;;;;3.15;52.97;99126.28;5012252;28;20382;-82
2021/01/25 02:34:08;;;;;;;;;;;;;;;3.21;53.86;99133.88;4998687;28;19917;-83
2021/01/25 02:36:53;;;;;;;;;;;;;;;3.29;54.16;99133.16;5003201;28;19913;-83
2021/01/25 02:39:38;;;;;;;;;;;;;;;3.12;53.67;99133.03;5012196;28;19914;-83
2021/01/25 02:42:23;;;;;;;;;;;;;;;3.15;52.96;99131.63;4998270;28;19929;-83
2021/01/25 02:45:08;;;;;;;;;;;;;;;2.94;52.80;99131.31;5007307;28;19914;-83
2021/01/25 02:47:53;;;;;;;;;;;;;;;3.40;52.08;99139.09;4986397;28;19913;-83
2021/01/25 02:50:37;;;;;;;;;;;;;;;3.56;51.86;99144.84;4999412;28;20391;-83
2021/01/25 02:53:22;;;;;;;;;;;;;;;3.75;49.45;99134.69;5001751;28;19922;-83
2021/01/25 02:56:07;;;;;;;;;;;;;;;3.44;51.15;99151.59;5009608;28;19914;-82
2021/01/25 02:58:51;;;;;;;;;;;;;;;2.97;52.05;99158.34;5003916;28;19913;-83
2021/01/25 03:01:36;;;;;;;;;;;;;;;2.67;52.81;99158.22;5002030;28;19921;-82
2021/01/25 03:04:21;;;;;;;;;;;;;;;2.67;53.69;99159.00;5011413;28;20408;-79
2021/01/25 03:07:06;;;;;;;;;;;;;;;2.77;53.98;99161.47;5009497;28;19917;-81
2021/01/25 03:09:50;;;;;;;;;;;;;;;2.61;54.80;99165.56;5002283;28;19913;-81
2021/01/25 03:12:35;;;;;;;;;;;;;;;2.74;54.66;99153.25;4999085;28;19917;-81
2021/01/25 03:15:20;;;;;;;;;;;;;;;2.89;55.08;99153.72;5013755;28;19917;-83
2021/01/25 03:18:05;;;;;;;;;;;;;;;2.76;55.43;99164.44;5008931;28;19925;-81
2021/01/25 03:20:50;;;;;;;;;;;;;;;2.79;55.08;99158.50;5009697;28;19913;-83
2021/01/25 03:23:34;;;;;;;;;;;;;;;2.86;55.40;99169.59;5009067;28;19913;-83
2021/01/25 03:26:19;;;;;;;;;;;;;;;2.87;54.91;99173.88;4997617;28;19913;-82
2021/01/25 03:29:03;;;;;;;;;;;;;;;2.91;55.06;99169.50;5010441;28;20368;-82
2021/01/25 03:31:48;;;;;;;;;;;;;;;2.88;55.28;99164.72;5011150;28;19914;-79
2021/01/25 03:34:32;;;;;;;;;;;;;;;2.83;55.02;99162.97;5016839;28;19918;-81
2021/01/25 03:37:17;;;;;;;;;;;;;;;2.81;55.48;99157.09;5014984;28;20672;-81
2021/01/25 03:40:01;;;;;;;;;;;;;;;2.79;55.40;99161.19;5013718;28;20596;-82
2021/01/25 03:42:46;;;;;;;;;;;;;;;2.86;55.17;99161.53;4995897;28;19917;-82
2021/01/25 03:45:30;;;;;;;;;;;;;;;2.81;54.39;99159.78;5023065;23;19913;-83
2021/01/25 03:48:15;;;;;;;;;;;;;;;2.78;54.33;99148.84;4998633;28;19922;-84
2021/01/25 03:51:00;;;;;;;;;;;;;;;2.88;55.42;99149.44;5011530;28;20290;-84
2021/01/25 03:53:45;;;;;;;;;;;;;;;3.05;54.93;99148.75;5001468;28;19917;-84
2021/01/25 03:56:29;;;;;;;;;;;;;;;3.17;53.90;99149.03;5031063;28;19913;-84
2021/01/25 03:59:14;;;;;;;;;;;;;;;3.09;54.37;99152.44;5012698;28;19914;-83
2021/01/25 04:01:58;;;;;;;;;;;;;;;2.96;55.16;99147.91;4999661;28;19913;-83
2021/01/25 04:04:43;;;;;;;;;;;;;;;2.99;55.66;99150.00;5001478;28;19913;-83
2021/01/25 04:07:27;;;;;;;;;;;;;;;3.02;55.76;99144.00;4999272;28;20303;-83
2021/01/25 04:10:12;;;;;;;;;;;;;;;3.16;55.63;99152.78;4998783;28;19914;-83
2021/01/25 04:12:57;;;;;;;;;;;;;;;3.09;55.98;99144.38;5003197;28;19913;-83
2021/01/25 04:15:42;;;;;;;;;;;;;;;3.08;56.01;99147.38;5010979;28;19917;-83
2021/01/25 04:18:27;;;;;;;;;;;;;;;3.12;55.23;99151.81;5014622;28;19913;-83
2021/01/25 04:21:12;;;;;;;;;;;;;;;3.15;55.12;99147.75;5029064;28;19913;-82
2021/01/25 04:23:57;;;;;;;;;;;;;;;3.22;54.85;99134.66;5010442;28;19913;-83
2021/01/25 04:26:41;;;;;;;;;;;;;;;3.38;53.82;99141.28;5024256;28;19914;-83
2021/01/25 04:29:26;;;;;;;;;;;;;;;3.33;53.48;99136.81;5003164;28;19917;-82
2021/01/25 04:32:10;;;;;;;;;;;;;;;3.15;54.22;99137.78;5012732;28;19914;-83
2021/01/25 04:34:55;;;;;;;;;;;;;;;2.98;55.70;99130.41;5009442;28;19918;-82
2021/01/25 04:37:40;;;;;;;;;;;;;;;2.95;55.38;99122.13;5011735;28;19917;-84
2021/01/25 04:40:25;;;;;;;;;;;;;;;2.77;55.74;99117.75;5000485;28;19922;-83
2021/01/25 04:43:10;;;;;;;;;;;;;;;2.67;56.08;99117.97;5014547;28;19929;-82
2021/01/25 04:45:55;;;;;;;;;;;;;;;2.73;55.93;99116.75;4997901;28;19913;-83
2021/01/25 04:48:40;;;;;;;;;;;;;;;2.74;56.35;99115.69;5001491;28;19913;-84
2021/01/25 04:51:25;;;;;;;;;;;;;;;2.78;56.27;99111.28;4999590;28;19913;-84
2021/01/25 04:54:10;;;;;;;;;;;;;;;2.89;56.67;99113.44;5011484;28;19921;-83
2021/01/25 04:56:58;;;;;;;;;;;;;;;2.82;56.50;99120.31;4999427;28;19913;-82
2021/01/25 04:59:46;;;;;;;;;;;;;;;2.59;57.26;99122.19;5008515;28;19914;-84
2021/01/25 05:02:30;;;;;;;;;;;;;;;2.49;57.63;99117.78;4996346;28;19921;-83
2021/01/25 05:05:15;;;;;;;;;;;;;;;2.41;57.86;99112.34;5002332;28;19913;-83
2021/01/25 05:08:00;;;;;;;;;;;;;;;2.48;57.43;99120.81;4998827;28;19917;-83
2021/01/25 05:10:44;;;;;;;;;;;;;;;2.45;57.81;99114.13;5009660;28;19913;-83
2021/01/25 05:13:29;;;;;;;;;;;;;;;2.49;57.87;99108.94;5016685;28;20399;-83
2021/01/25 05:16:14;;;;;;;;;;;;;;;2.65;57.30;99102.16;5013808;28;19913;-83
2021/01/25 05:19:01;;;;;;;;;;;;;;;2.57;57.77;99097.53;5013507;28;19913;-83
2021/01/25 05:21:46;;;;;;;;;;;;;;;2.57;57.39;99108.25;5025794;28;19913;-83
2021/01/25 05:24:30;;;;;;;;;;;;;;;2.57;57.45;99109.06;5016861;28;20307;-83
2021/01/25 05:27:25;;;;;;;;;;;;;;;2.50;57.36;99099.81;5000209;28;19914;-83
2021/01/25 05:30:11;;;;;;;;;;;;;;;2.52;57.52;99101.13;5004293;28;19922;-82
2021/01/25 05:32:56;;;;;;;;;;;;;;;2.45;57.28;99102.59;5005267;28;20302;-83
2021/01/25 05:35:42;;;;;;;;;;;;;;;2.47;57.98;99111.94;5031420;28;19918;-84
2021/01/25 05:38:27;;;;;;;;;;;;;;;2.47;57.91;99111.16;5015322;28;19913;-84
2021/01/25 05:41:11;;;;;;;;;;;;;;;2.52;57.20;99106.47;5003582;28;19917;-83
2021/01/25 05:43:55;;;;;;;;;;;;;;;2.50;56.85;99105.97;5013433;28;20302;-83
2021/01/25 05:46:40;;;;;;;;;;;;;;;2.67;56.95;99112.59;5015594;28;20315;-84
2021/01/25 05:49:27;;;;;;;;;;;;;;;2.77;57.80;99112.38;5003030;28;19913;-84
2021/01/25 05:52:15;;;;;;;;;;;;;;;2.52;57.08;99114.53;5009843;28;19913;-84
2021/01/25 05:55:00;;;;;;;;;;;;;;;2.53;57.77;99104.59;5012993;28;19917;-84
2021/01/25 05:57:44;;;;;;;;;;;;;;;2.63;57.32;99087.47;5026861;28;19913;-83
2021/01/25 06:00:30;;;;;;;;;;;;;;;2.65;56.65;99086.06;5001646;28;19918;-82
2021/01/25 06:03:14;;;;;;;;;;;;;;;2.61;56.48;99095.81;5017189;28;19913;-83
2021/01/25 06:05:58;;;;;;;;;;;;;;;2.44;57.67;99103.69;5027536;28;19913;-82
2021/01/25 06:08:53;;;;;;;;;;;;;;;2.54;57.91;99100.78;5018939;28;19913;-83
2021/01/25 06:11:43;;;;;;;;;;;;;;;2.61;57.24;99116.47;5004359;28;19913;-83
2021/01/25 06:14:34;;;;;;;;;;;;;;;2.74;57.12;99110.31;5000803;28;19918;-83
2021/01/25 06:17:18;;;;;;;;;;;;;;;3.25;56.15;99116.03;5026762;28;20283;-84
2021/01/25 06:20:05;;;;;;;;;;;;;;;3.14;56.98;99117.41;4996748;28;19914;-85
2021/01/25 06:22:50;;;;;;;;;;;;;;;3.24;57.26;99119.06;5012742;28;19913;-85
2021/01/25 06:25:35;;;;;;;;;;;;;;;3.15;57.55;99113.59;4992640;28;19921;-82
2021/01/25 06:28:20;;;;;;;;;;;;;;;3.13;58.07;99121.19;5019112;28;19913;-83
2021/01/25 06:31:05;;;;;;;;;;;;;;;3.11;57.45;99130.63;4993456;28;19914;-82
2021/01/25 06:33:50;;;;;;;;;;;;;;;3.27;57.77;99121.91;5002429;28;19917;-83
2021/01/25 06:36:34;;;;;;;;;;;;;;;3.41;58.39;99119.16;5004435;28;19913;-83
2021/01/25 06:39:29;;;;;;;;;;;;;;;3.21;57.51;99120.44;4988540;28;19913;-82
2021/01/25 06:42:17;;;;;;;;;;;;;;;3.39;58.25;99130.22;4999048;28;19913;-83
2021/01/25 06:45:03;;;;;;;;;;;;;;;3.53;56.52;99123.97;5001849;28;19913;-82
2021/01/25 06:47:47;;;;;;;;;;;;;;;4.04;59.84;99126.91;4991057;28;19913;-82
2021/01/25 06:50:33;;;;;;;;;;;;;;;3.84;57.38;99117.50;4990718;28;19913;-82
2021/01/25 06:53:17;;;;;;;;;;;;;;;3.76;56.69;99122.81;5018078;28;19917;-82
2021/01/25 06:56:05;;;;;;;;;;;;;;;3.69;55.70;99125.16;5026361;28;19917;-81
2021/01/25 06:58:50;;;;;;;;;;;;;;;3.60;55.96;99127.03;4997058;28;19913;-82
2021/01/25 07:01:36;;;;;;;;;;;;;;;3.57;57.09;99133.00;5002846;28;20318;-81
2021/01/25 07:04:24;;;;;;;;;;;;;;;3.87;57.29;99130.31;4996819;28;20291;-82
2021/01/25 07:07:19;;;;;;;;;;;;;;;3.96;57.09;99135.75;4995501;28;19914;-83
2021/01/25 07:10:04;;;;;;;;;;;;;;;3.81;56.18;99131.53;5008298;28;19913;-82
2021/01/25 07:12:49;;;;;;;;;;;;;;;3.90;55.70;99126.22;5022950;28;19913;-82
2021/01/25 07:15:35;;;;;;;;;;;;;;;4.02;54.05;99122.94;5009077;28;19918;-82
2021/01/25 07:18:20;;;;;;;;;;;;;;;3.93;55.40;99130.19;5023968;28;20291;-82
2021/01/25 07:21:05;;;;;;;;;;;;;;;3.80;55.49;99135.34;4991926;28;19913;-81
2021/01/25 07:23:50;;;;;;;;;;;;;;;4.00;56.12;99135.91;4990186;28;19913;-82
2021/01/25 07:26:37;;;;;;;;;;;;;;;4.45;57.27;99133.84;5007332;28;19917;-83
2021/01/25 07:29:22;;;;;;;;;;;;;;;4.46;57.16;99133.53;4994078;28;19917;-83
2021/01/25 07:32:12;;;;;;;;;;;;;;;4.81;62.42;99139.75;5001660;28;19914;-80
2021/01/25 07:34:57;;;;;;;;;;;;;;;4.94;63.62;99143.41;5005728;28;19917;-83
2021/01/25 07:37:41;;;;;;;;;;;;;;;5.35;68.60;99140.22;4992424;28;19921;-79
2021/01/25 07:40:26;;;;;;;;;;;;;;;5.57;70.57;99148.91;4994950;28;19921;-82
2021/01/25 07:43:10;;;;;;;;;;;;;;;5.44;68.68;99141.78;4992439;28;19917;-81
2021/01/25 07:46:05;;;;;;;;;;;;;;;5.24;61.22;99144.34;4996616;28;19921;-81
2021/01/25 07:48:51;;;;;;;;;;;;;;;4.94;58.75;99141.50;5008660;28;19913;-82
2021/01/25 07:51:37;;;;;;;;;;;;;;;4.83;55.50;99147.50;4999534;28;20687;-81
2021/01/25 07:54:23;;;;;;;;;;;;;;;4.75;55.93;99146.41;4995430;28;19921;-80
2021/01/25 07:57:12;;;;;;;;;;;;;;;4.76;55.16;99137.22;5004667;28;19913;-81
2021/01/25 07:59:57;;;;;;;;;;;;;;;4.74;54.70;99126.75;5010045;28;19913;-81
2021/01/25 08:02:45;;;;;;;;;;;;;;;4.93;54.43;99131.03;5010464;28;19918;-82
2021/01/25 08:05:32;;;;;;;;;;;;;;;4.93;54.95;99134.53;4996470;28;19914;-81
2021/01/25 08:08:17;;;;;;;;;;;;;;;5.28;59.16;99134.53;4999975;28;19913;-81
2021/01/25 08:11:05;;;;;;;;;;;;;;;5.42;61.83;99140.53;4996634;28;19917;-81
2021/01/25 08:13:58;;;;;;;;;;;;;;;4.94;52.51;99125.34;5003237;28;20371;-80
2021/01/25 08:16:45;;;;;;;;;;;;;;;4.87;52.24;99126.94;4987512;28;19914;-81
2021/01/25 08:19:56;;;;;;;;;;;;;;;4.73;53.54;99140.53;5011806;28;20295;-79
2021/01/25 08:23:00;;;;;;;;;;;;;;;4.80;54.16;99140.06;4998183;28;19921;-79
2021/01/25 08:25:52;;;;;;;;;;;;;;;4.79;54.64;99143.84;5000900;28;20364;-79
2021/01/25 08:28:41;;;;;;;;;;;;;;;4.55;54.90;99147.78;4999072;28;20379;-79
2021/01/25 08:31:31;;;;;;;;;;;;;;;4.29;55.32;99153.09;5012716;28;19913;-79
2021/01/25 08:34:18;;;;;;;;;;;;;;;5.15;53.32;99161.31;4999830;28;19917;-79
2021/01/25 08:37:05;;;;;;;;;;;;;;;5.81;49.68;99171.84;4998625;28;19914;-79
2021/01/25 08:39:49;;;;;;;;;;;;;;;5.54;48.82;99176.50;5013938;28;19913;-79
2021/01/25 08:42:34;;;;;;;;;;;;;;;5.49;50.82;99186.66;4991612;28;19913;-79
2021/01/25 08:45:24;;;;;;;;;;;;;;;5.72;50.44;99185.34;4984550;28;20326;-79
2021/01/25 08:48:11;;;;;;;;;;;;;;;5.48;52.36;99185.88;5003936;28;19913;-80
2021/01/25 08:51:14;;;;;;;;;;;;;;;5.77;52.01;99187.88;5003311;28;20327;-79
2021/01/25 08:54:00;;;;;;;;;;;;;;;5.39;50.36;99197.75;4988815;28;19917;-80
2021/01/25 08:56:44;;;;;;;;;;;;;;;4.75;55.07;99200.25;5015785;28;19914;-78
2021/01/25 08:59:31;;;;;;;;;;;;;;;4.57;55.66;99228.25;4989868;28;20319;-78
2021/01/25 09:02:21;;;;;;;;;;;;;;;4.92;55.26;99229.91;5014128;28;19914;-78
2021/01/25 09:05:06;;;;;;;;;;;;;;;5.23;52.08;99237.09;5016356;28;19913;-78
2021/01/25 09:07:51;;;;;;;;;;;;;;;5.14;49.26;99237.06;5004167;28;19921;-78
2021/01/25 09:10:35;;;;;;;;;;;;;;;5.11;48.92;99235.81;4998912;28;19913;-80
2021/01/25 09:13:20;;;;;;;;;;;;;;;4.82;50.19;99249.06;5012385;28;19913;-78
2021/01/25 09:16:04;;;;;;;;;;;;;;;4.84;50.08;99251.41;5004162;28;20287;-78
2021/01/25 09:18:49;;;;;;;;;;;;;;;4.79;50.52;99257.75;5015541;28;19914;-78
2021/01/25 09:21:33;;;;;;;;;;;;;;;4.57;50.79;99253.22;4991812;28;19914;-80
2021/01/25 09:24:18;;;;;;;;;;;;;;;4.52;51.57;99268.75;4988223;28;19913;-78
2021/01/25 09:27:02;;;;;;;;;;;;;;;4.32;52.04;99280.06;5013186;28;19917;-78
2021/01/25 09:29:46;;;;;;;;;;;;;;;4.36;51.46;99297.16;5000005;28;19913;-78
2021/01/25 09:32:31;;;;;;;;;;;;;;;4.58;51.16;99297.09;5014111;28;20283;-78
2021/01/25 09:35:16;;;;;;;;;;;;;;;4.75;51.88;99302.56;5000432;28;19917;-79
2021/01/25 09:38:02;;;;;;;;;;;;;;;5.34;50.75;99319.19;5019615;28;19917;-80
2021/01/25 09:40:46;;;;;;;;;;;;;;;4.81;49.41;99325.56;5014821;28;19913;-79
2021/01/25 09:43:30;;;;;;;;;;;;;;;4.58;51.78;99332.09;5015386;28;20314;-78
2021/01/25 09:46:15;;;;;;;;;;;;;;;4.41;53.42;99340.09;5015796;28;19914;-78
2021/01/25 09:48:59;;;;;;;;;;;;;;;4.25;54.93;99337.78;5017211;23;19921;-83
2021/01/25 09:51:46;;;;;;;;;;;;;;;4.23;55.55;99339.97;4989128;28;19918;-84
2021/01/25 09:54:30;;;;;;;;;;;;;;;4.13;56.39;99339.44;5001778;28;19917;-84
2021/01/25 09:57:14;;;;;;;;;;;;;;;4.15;56.57;99338.03;4997177;28;19913;-81
2021/01/25 09:59:59;;;;;;;;;;;;;;;4.25;55.99;99331.59;4985467;28;19918;-83
2021/01/25 10:02:44;;;;;;;;;;;;;;;4.51;56.19;99331.75;4982359;28;19914;-83
2021/01/25 10:05:28;;;;;;;;;;;;;;;4.53;56.67;99338.41;4968155;28;19914;-83
2021/01/25 10:08:12;;;;;;;;;;;;;;;4.52;56.60;99333.34;4965147;28;19918;-84
2021/01/25 10:10:57;;;;;;;;;;;;;;;4.49;55.93;99332.06;4983340;28;19914;-84
2021/01/25 10:13:43;;;;;;;;;;;;;;;4.69;53.11;99330.72;4974299;28;19918;-83
2021/01/25 10:16:27;;;;;;;;;;;;;;;4.85;53.16;99336.50;4964626;28;20380;-84
2021/01/25 10:19:12;;;;;;;;;;;;;;;4.83;53.93;99341.38;4978477;28;20376;-84
2021/01/25 10:21:56;;;;;;;;;;;;;;;5.17;53.96;99338.84;4978988;28;19913;-84
2021/01/25 10:24:41;;;;;;;;;;;;;;;5.50;53.70;99331.91;4966258;28;20368;-84
2021/01/25 10:27:25;;;;;;;;;;;;;;;5.68;54.45;99338.13;4968742;28;19914;-84
2021/01/25 10:30:14;;;;;;;;;;;;;;;6.01;53.53;99338.47;4967564;28;20307;-85
2021/01/25 10:32:59;;;;;;;;;;;;;;;6.45;53.17;99335.38;4953788;28;19914;-86
2021/01/25 10:35:44;;;;;;;;;;;;;;;6.39;52.23;99341.28;4984295;28;20372;-84
2021/01/25 10:38:29;;;;;;;;;;;;;;;6.40;52.70;99350.94;4977129;28;19914;-85
2021/01/25 10:41:13;;;;;;;;;;;;;;;6.44;53.17;99351.91;4960194;28;20319;-84
2021/01/25 10:43:57;;;;;;;;;;;;;;;6.47;52.95;99351.25;4995235;28;19914;-85
2021/01/25 10:46:42;;;;;;;;;;;;;;;6.66;53.65;99359.00;4988967;28;19913;-83
2021/01/25 10:49:27;;;;;;;;;;;;;;;7.07;52.25;99358.38;4995326;28;19913;-83
2021/01/25 10:52:19;;;;;;;;;;;;;;;7.18;49.63;99354.19;4956159;28;19914;-87
2021/01/25 10:55:10;;;;;;;;;;;;;;;7.59;47.97;99346.16;4978123;28;19917;-88
2021/01/25 11:01:57;;;;;;;;;;;;;;;7.63;47.92;99347.06;4916308;29;20301;-86
2021/01/25 11:05:03;;;;;;;;;;;;;;;;;;;;;
2021/01/25 11:08:12;;;;;;;;;;;;;;;;;;;;;
2021/01/25 11:11:00;;;;;;;;;;;;;;;8.55;43.14;99342.31;4980984;28;19914;-86
2021/01/25 11:13:58;;;;;;;;;;;;;;;8.72;43.12;99345.97;4974545;28;19914;-84
2021/01/25 11:16:47;;;;;;;;;;;;;;;8.77;42.36;99337.63;4986186;28;19917;-85
2021/01/25 11:20:08;;;;;;;;;;;;;;;;;;;;;
2021/01/25 11:23:22;;;;;;;;;;;;;;;7.85;43.55;99329.72;4994435;28;19917;-85
2021/01/25 11:26:17;;;;;;;;;;;;;;;;;;;;;
2021/01/25 11:29:25;;;;;;;;;;;;;;;;;;;;;
2021/01/25 11:32:26;;;;;;;;;;;;;;;7.73;43.39;99333.16;4994134;28;19914;-84
2021/01/25 11:38:47;;;;;;;;;;;;;;;;;;;;;
2021/01/25 11:41:46;;;;;;;;;;;;;;;;;;;;;
2021/01/25 11:44:55;;;;;;;;;;;;;;;7.94;42.53;99313.41;4974597;28;19914;-86
2021/01/25 11:51:25;;;;;;;;;;;;;;;8.36;43.20;99306.03;4959456;28;19918;-84
2021/01/25 11:54:13;;;;;;;;;;;;;;;8.38;43.26;99303.78;4961997;28;19914;-88
2021/01/25 11:56:57;;;;;;;;;;;;;;;8.86;42.84;99303.84;4966533;28;20385;-85
2021/01/25 11:59:42;;;;;;;;;;;;;;;9.59;41.34;99308.44;4990794;28;20380;-85
2021/01/25 12:02:26;;;;;;;;;;;;;;;9.79;40.06;99300.13;4985357;28;19914;-86
2021/01/25 12:05:11;;;;;;;;;;;;;;;10.31;39.95;99312.06;4986583;28;19913;-85
2021/01/25 12:07:59;;;;;;;;;;;;;;;10.51;39.20;99302.88;4983626;28;19913;-85
2021/01/25 12:10:45;;;;;;;;;;;;;;;10.83;38.30;99309.09;4986302;28;19913;-86
2021/01/25 12:13:29;;;;;;;;;;;;;;;10.68;38.38;99300.59;4966189;28;19914;-85
2021/01/25 12:16:15;;;;;;;;;;;;;;;10.54;38.95;99302.97;4966048;28;20404;-86
2021/01/25 12:18:59;;;;;;;;;;;;;;;10.40;38.87;99305.31;4978275;28;19914;-85
2021/01/25 12:21:44;;;;;;;;;;;;;;;10.65;38.83;99311.38;4971994;28;19917;-86
2021/01/25 12:24:29;;;;;;;;;;;;;;;10.42;38.71;99303.03;4986748;28;19913;-84
2021/01/25 12:27:13;;;;;;;;;;;;;;;10.25;39.11;99298.72;4991424;28;19922;-85
2021/01/25 12:29:58;;;;;;;;;;;;;;;10.42;39.24;99297.59;4994855;28;19913;-86
2021/01/25 12:32:42;;;;;;;;;;;;;;;10.36;38.90;99292.78;4990849;28;19917;-85
2021/01/25 12:35:29;;;;;;;;;;;;;;;10.28;39.45;99297.22;4982248;28;19917;-86
2021/01/25 12:38:14;;;;;;;;;;;;;;;10.20;39.19;99307.13;4963155;28;19918;-85
2021/01/25 12:41:15;;;;;;;;;;;;;;;10.35;38.10;99302.06;4994254;28;19913;-84
2021/01/25 12:44:01;;;;;;;;;;;;;;;10.38;35.61;99306.78;4963025;28;19913;-84
2021/01/25 12:46:49;;;;;;;;;;;;;;;10.10;35.95;99301.38;4978038;28;19914;-85
2021/01/25 12:49:34;;;;;;;;;;;;;;;10.15;37.07;99315.50;4969536;28;19921;-87
2021/01/25 12:52:19;;;;;;;;;;;;;;;9.99;38.25;99305.69;5008143;28;19913;-86
2021/01/25 12:55:10;;;;;;;;;;;;;;;9.96;38.68;99314.53;5008135;28;20311;-85
2021/01/25 12:57:55;;;;;;;;;;;;;;;9.99;39.98;99311.13;5000346;28;19913;-85
2021/01/25 13:00:39;;;;;;;;;;;;;;;10.26;40.51;99326.66;4989122;28;19913;-85
2021/01/25 13:03:24;;;;;;;;;;;;;;;10.52;41.39;99318.81;4994249;28;19917;-87
2021/01/25 13:06:08;;;;;;;;;;;;;;;10.97;40.85;99328.50;4986002;28;19913;-85
2021/01/25 13:08:52;;;;;;;;;;;;;;;12.95;34.29;99329.13;5001489;28;19914;-83
2021/01/25 13:11:37;;;;;;;;;;;;;;;14.76;28.54;99326.84;5007980;28;19913;-83
2021/01/25 13:14:21;;;;;;;;;;;;;;;15.62;26.83;99331.84;4962815;28;19914;-84
2021/01/25 13:17:05;;;;;;;;;;;;;;;14.26;29.28;99337.25;4964403;28;19918;-83
2021/01/25 13:19:50;;;;;;;;;;;;;;;13.36;31.98;99330.19;4975953;28;19914;-87
2021/01/25 13:22:34;;;;;;;;;;;;;;;11.06;35.61;99327.19;4962189;28;19914;-84
2021/01/25 13:25:19;;;;;;;;;;;;;;;10.27;38.19;99320.88;4995684;28;19913;-86
2021/01/25 13:28:04;;;;;;;;;;;;;;;9.87;38.26;99326.31;4962389;28;19922;-83
2021/01/25 13:30:48;;;;;;;;;;;;;;;9.75;38.84;99328.31;4968584;28;20295;-84
2021/01/25 13:33:33;;;;;;;;;;;;;;;9.27;37.76;99326.44;4984105;28;19913;-85
2021/01/25 13:36:17;;;;;;;;;;;;;;;9.24;38.33;99330.66;5003946;28;19929;-87
2021/01/25 13:39:02;;;;;;;;;;;;;;;8.91;38.61;99327.22;4991802;28;19925;-85
2021/01/25 13:41:46;;;;;;;;;;;;;;;8.47;38.57;99331.56;4972730;28;19914;-86
2021/01/25 13:44:31;;;;;;;;;;;;;;;8.43;38.96;99339.56;4986960;28;19913;-83
2021/01/25 13:47:15;;;;;;;;;;;;;;;8.47;39.25;99340.50;4988713;28;19913;-84
2021/01/25 13:50:00;;;;;;;;;;;;;;;8.69;39.37;99343.91;4981294;28;19914;-86
2021/01/25 13:52:44;;;;;;;;;;;;;;;8.80;40.00;99347.78;4980415;28;20303;-88
2021/01/25 13:55:29;;;;;;;;;;;;;;;8.86;40.44;99352.66;5009987;28;19917;-88
2021/01/25 13:58:13;;;;;;;;;;;;;;;9.08;40.91;99358.78;5004353;28;20371;-86
2021/01/25 14:00:59;;;;;;;;;;;;;;;9.95;40.41;99357.22;5004558;28;19913;-86
2021/01/25 14:03:43;;;;;;;;;;;;;;;11.52;37.22;99376.47;4990761;28;19913;-84
2021/01/25 14:06:27;;;;;;;;;;;;;;;11.81;35.93;99367.81;4984061;28;19914;-84
2021/01/25 14:09:12;;;;;;;;;;;;;;;12.67;34.17;99364.84;4981740;28;19913;-87
2021/01/25 14:11:57;;;;;;;;;;;;;;;12.38;34.14;99369.78;4987497;28;19914;-86
2021/01/25 14:14:43;;;;;;;;;;;;;;;11.21;37.13;99374.56;4979383;28;20368;-87
2021/01/25 14:17:27;;;;;;;;;;;;;;;11.42;36.39;99368.84;4991566;28;19918;-87
2021/01/25 14:20:14;;;;;;;;;;;;;;;10.34;39.28;99371.13;4968448;28;19921;-87
2021/01/25 14:23:01;;;;;;;;;;;;;;;9.35;42.04;99375.16;4974629;28;20376;-85
2021/01/25 14:25:45;;;;;;;;;;;;;;;9.06;42.77;99377.28;4977789;28;19913;-86
2021/01/25 14:28:30;;;;;;;;;;;;;;;9.10;43.78;99375.47;4984384;28;19914;-83
2021/01/25 14:31:14;;;;;;;;;;;;;;;9.15;43.26;99378.75;4986411;28;19917;-86
2021/01/25 14:33:58;;;;;;;;;;;;;;;9.31;42.52;99376.16;4978211;28;20380;-82
2021/01/25 14:36:43;;;;;;;;;;;;;;;8.80;41.94;99372.16;4973696;28;19918;-84
2021/01/25 14:39:28;;;;;;;;;;;;;;;8.52;42.64;99374.72;4976815;28;19914;-85
2021/01/25 14:42:14;;;;;;;;;;;;;;;8.51;42.85;99373.91;4988480;28;19913;-84
2021/01/25 14:44:59;;;;;;;;;;;;;;;8.53;43.25;99371.63;4986962;28;19914;-84
2021/01/25 14:47:44;;;;;;;;;;;;;;;8.77;42.75;99378.28;4993156;28;19921;-84
2021/01/25 14:50:29;;;;;;;;;;;;;;;8.86;42.63;99378.97;4989634;28;20367;-85
2021/01/25 14:53:14;;;;;;;;;;;;;;;10.02;39.96;99386.47;4985095;28;19914;-83
2021/01/25 14:55:58;;;;;;;;;;;;;;;9.22;41.30;99387.13;5000065;28;19917;-85